Portada
METAR-TAF:

METAR-TAF

Aeroports :

Aeroport Suvarnabhumi

Bangkok-Suvarnabhumi, Tailàndia

latitud: 13-40-52N, longitud: 100-44-50E, altitud: 2 m

Observació

L'informe es va fer fa 22 minuts, a les 21:00 UTC
Vent 5 kt del Est, variant entre Nord-Est i Sud-Est
Temperatura 25°C
Humitat 89%
Pressió 1012 hPa
Visibilitat: 9000 m
Escasses núvols a una alçada de 2000 ft

METAR: VTBS 162100Z 09005KT 050V140 9000 FEW020 25/23 Q1012 NOSIG

Hora: 04:22 (21:22 UTC)

Pronòstic

L'informe es va fer fa 4 hores i 22 minuts, a les 17:00 UTC
Pronòstic vàlid del 16 a les 18 UTC al 17 a les 24 UTC
Vent 8 kt del Sud/Sud-Oest
Visibilitat 10 km o més
Escasses núvols a una alçada de 2000 ft

TAF: VTBS 161700Z 1618/1724 20008KT 9999 FEW020

Observacions i pronòstics meteorològics de més de 4000 aeroports (METAR i TAF).

Les estacions disponibles són els punts grocs i vermells al mapa.

Posi el ratolí al punt desitjat per veure el nom de l'estació.

Feu clic per veure les observacions i els pronòstics meteorològics.

Per canviar el mapa: feu clic els botons verds amb una creu de color negre per apropar; al botó verd amb un guió per allunyar la imatge; o en les fletxes verdes per a mapes adjacents.


METAR-TAF: